Time;durP1;ratioP1;P1;durP2;ratioP2;P2;SDS_P1;SDS_P2;PMS_P1;PMS_P2;Temp;Humidity;BMP_temperature;BMP_pressure;BME280_temperature;BME280_humidity;BME280_pressure;Samples;Min_cycle;Max_cycle;Signal;HPM_P1;HPM_P2
2021/09/26 00:02:19;;;;;;;3.05;1.63;;;;;;;11.58;90.94;98302.69;5020464;28;20061;-67
2021/09/26 00:05:07;;;;;;;2.13;1.60;;;;;;;11.61;90.16;98306.91;5022081;28;20026;-67
2021/09/26 00:07:53;;;;;;;2.50;1.70;;;;;;;11.68;90.74;98318.66;5022405;28;20105;-67
2021/09/26 00:10:39;;;;;;;1.85;1.70;;;;;;;11.65;90.69;98313.63;5020914;28;20215;-66
2021/09/26 00:13:25;;;;;;;2.28;1.73;;;;;;;11.51;91.49;98306.50;5020747;28;20042;-67
2021/09/26 00:16:11;;;;;;;3.60;2.10;;;;;;;11.56;91.59;98323.50;5032346;28;20030;-66
2021/09/26 00:18:57;;;;;;;2.05;1.70;;;;;;;11.56;91.09;98326.09;5021368;28;20068;-66
2021/09/26 00:21:43;;;;;;;1.88;1.10;;;;;;;11.52;90.02;98331.53;5047028;28;20215;-66
2021/09/26 00:24:44;;;;;;;1.20;1.10;;;;;;;11.54;89.24;98333.13;5020880;28;20036;-66
2021/09/26 00:27:30;;;;;;;3.83;1.52;;;;;;;11.54;90.72;98327.09;5021274;28;20025;-66
2021/09/26 00:30:27;;;;;;;1.20;1.10;;;;;;;11.55;89.72;98319.22;5020442;28;20030;-66
2021/09/26 00:33:13;;;;;;;1.20;1.08;;;;;;;11.45;89.87;98297.25;5044842;28;20266;-67
2021/09/26 00:35:59;;;;;;;1.33;1.17;;;;;;;11.48;90.65;98317.00;5021689;28;20033;-67
2021/09/26 00:38:45;;;;;;;1.42;0.93;;;;;;;11.55;90.17;98318.41;5020112;28;20026;-67
2021/09/26 00:41:31;;;;;;;1.35;1.00;;;;;;;11.52;89.62;98321.16;5019824;28;20030;-67
2021/09/26 00:44:17;;;;;;;1.73;1.13;;;;;;;11.52;90.74;98313.38;5020737;28;20026;-67
2021/09/26 00:47:03;;;;;;;4.78;1.05;;;;;;;11.56;90.35;98310.56;5020862;28;20092;-67
2021/09/26 00:49:49;;;;;;;1.05;0.90;;;;;;;11.57;89.91;98317.41;5019406;28;20034;-67
2021/09/26 00:52:41;;;;;;;1.75;1.40;;;;;;;11.42;90.59;98318.16;5008558;28;20030;-67
2021/09/26 00:55:28;;;;;;;2.55;1.33;;;;;;;11.42;90.29;98319.91;5019993;28;20044;-67
2021/09/26 00:58:14;;;;;;;2.42;1.80;;;;;;;11.37;90.57;98320.97;5019889;28;20026;-66
2021/09/26 01:01:00;;;;;;;4.07;2.00;;;;;;;11.30;89.72;98314.38;5019400;28;20037;-67
2021/09/26 01:03:45;;;;;;;2.55;2.00;;;;;;;11.47;90.42;98329.16;5004168;28;20031;-67
2021/09/26 01:06:43;;;;;;;2.80;1.85;;;;;;;11.43;90.90;98337.97;5021798;28;20121;-67
2021/09/26 01:09:43;;;;;;;3.40;1.80;;;;;;;11.44;90.31;98341.41;5021487;28;20029;-67
2021/09/26 01:12:34;;;;;;;2.60;1.27;;;;;;;11.32;89.87;98342.81;5022923;28;20045;-68
2021/09/26 01:15:31;;;;;;;0.90;0.90;;;;;;;11.28;89.18;98320.53;5024370;28;20280;-67
2021/09/26 01:18:35;;;;;;;1.40;0.77;;;;;;;11.36;89.25;98337.41;5024919;28;20342;-68
2021/09/26 01:21:27;;;;;;;1.05;0.75;;;;;;;11.20;89.55;98306.19;5023769;28;20030;-67
2021/09/26 01:24:19;;;;;;;1.55;0.95;;;;;;;11.40;89.69;98343.28;5024340;28;20018;-67
2021/09/26 01:27:23;;;;;;;1.08;0.77;;;;;;;11.43;89.77;98335.38;5024010;28;20549;-67
2021/09/26 01:30:17;;;;;;;1.77;1.17;;;;;;;11.26;89.35;98315.44;5023478;28;20067;-67
2021/09/26 01:33:28;;;;;;;1.00;1.00;;;;;;;11.48;90.19;98348.97;5022592;28;20397;-68
2021/09/26 01:36:14;;;;;;;1.08;0.77;;;;;;;11.46;89.59;98344.75;5007271;28;20030;-67
2021/09/26 01:39:04;;;;;;;2.30;1.08;;;;;;;11.46;89.63;98336.97;5034615;28;20032;-67
2021/09/26 01:41:57;;;;;;;2.60;1.00;;;;;;;11.08;88.96;98291.22;5008429;28;20289;-67
2021/09/26 01:44:54;;;;;;;1.70;1.30;;;;;;;10.97;89.37;98291.69;5022715;28;20322;-67
2021/09/26 01:47:53;;;;;;;2.33;1.40;;;;;;;10.93;89.25;98303.13;5022010;28;20032;-66
2021/09/26 01:50:40;;;;;;;1.67;1.00;;;;;;;11.19;89.19;98350.31;5022975;28;20227;-66
2021/09/26 01:53:28;;;;;;;2.22;1.15;;;;;;;10.93;89.23;98297.94;5023329;28;20275;-67
2021/09/26 01:56:15;;;;;;;1.20;1.10;;;;;;;10.93;89.13;98302.25;5030268;28;20033;-67
2021/09/26 01:59:03;;;;;;;2.33;1.20;;;;;;;11.21;88.89;98349.31;5030186;28;20211;-67
2021/09/26 02:01:50;;;;;;;1.50;1.05;;;;;;;11.20;88.83;98357.16;5030696;28;20096;-66
2021/09/26 02:04:36;;;;;;;0.95;0.95;;;;;;;11.09;88.94;98344.72;5028139;28;20032;-67
2021/09/26 02:07:22;;;;;;;2.30;1.13;;;;;;;11.14;88.95;98366.06;5023451;28;20072;-66
2021/09/26 02:10:09;;;;;;;2.45;0.90;;;;;;;11.14;89.31;98366.06;5022643;28;20037;-67
2021/09/26 02:12:56;;;;;;;1.15;0.90;;;;;;;11.08;89.18;98358.56;5022191;28;20026;-67
2021/09/26 02:15:44;;;;;;;1.30;1.20;;;;;;;11.13;89.13;98377.34;5023354;28;20029;-67
2021/09/26 02:18:31;;;;;;;1.23;1.13;;;;;;;11.04;89.79;98354.44;5023103;28;20061;-67
2021/09/26 02:21:18;;;;;;;1.02;1.00;;;;;;;11.07;89.49;98361.22;5023654;28;20034;-67
2021/09/26 02:24:05;;;;;;;1.02;0.70;;;;;;;11.10;89.63;98349.00;5022050;28;20089;-67
2021/09/26 02:26:51;;;;;;;1.17;1.08;;;;;;;11.13;89.49;98363.53;5020846;28;20033;-67
2021/09/26 02:29:37;;;;;;;0.90;0.90;;;;;;;11.13;89.67;98359.22;5036896;28;20029;-67
2021/09/26 02:32:23;;;;;;;1.95;1.10;;;;;;;11.17;89.69;98365.94;5021202;28;20231;-67
2021/09/26 02:35:10;;;;;;;3.20;1.00;;;;;;;11.13;88.99;98363.53;5018376;28;20034;-68
2021/09/26 02:37:56;;;;;;;1.45;1.00;;;;;;;11.19;88.97;98366.69;5021728;28;20225;-67
2021/09/26 02:40:51;;;;;;;2.35;1.38;;;;;;;10.83;89.18;98320.81;5020786;28;20054;-67
2021/09/26 02:44:04;;;;;;;2.40;1.10;;;;;;;11.12;89.90;98383.44;5022903;28;20065;-66
2021/09/26 02:46:57;;;;;;;1.52;1.00;;;;;;;11.15;89.89;98385.88;5009228;28;20026;-66
2021/09/26 02:49:44;;;;;;;1.90;1.13;;;;;;;11.14;90.31;98376.41;5022222;28;20145;-67
2021/09/26 02:52:30;;;;;;;1.20;1.10;;;;;;;11.20;90.34;98380.47;5020596;28;20030;-67
2021/09/26 02:55:17;;;;;;;3.47;1.35;;;;;;;11.23;90.31;98380.38;5046671;28;20096;-66
2021/09/26 02:58:03;;;;;;;2.22;1.75;;;;;;;11.23;90.74;98382.97;5021536;28;20026;-66
2021/09/26 03:00:49;;;;;;;1.50;1.30;;;;;;;11.25;90.04;98388.06;5023341;28;20034;-66
2021/09/26 03:03:35;;;;;;;1.70;1.20;;;;;;;11.22;90.59;98389.06;5023173;28;20247;-67
2021/09/26 03:06:21;;;;;;;2.72;1.63;;;;;;;11.21;91.34;98384.78;5026873;28;20033;-67
2021/09/26 03:09:07;;;;;;;3.17;1.30;;;;;;;11.17;91.05;98380.63;5028395;28;20030;-67
2021/09/26 03:11:53;;;;;;;2.80;1.40;;;;;;;11.16;91.43;98387.56;5021753;28;20017;-66
2021/09/26 03:14:38;;;;;;;2.97;1.27;;;;;;;11.15;91.39;98388.47;5021611;28;20034;-67
2021/09/26 03:17:25;;;;;;;1.90;1.58;;;;;;;11.16;91.41;98384.97;5029630;28;20061;-67
2021/09/26 03:20:11;;;;;;;1.35;1.23;;;;;;;11.21;90.50;98382.19;5034574;28;20037;-67
2021/09/26 03:22:58;;;;;;;2.17;1.40;;;;;;;11.17;90.60;98371.13;5027606;28;20096;-67
2021/09/26 03:25:44;;;;;;;3.00;1.90;;;;;;;11.26;90.91;98389.72;5022108;28;20025;-67
2021/09/26 03:28:30;;;;;;;1.50;1.40;;;;;;;11.20;90.25;98386.53;5020939;28;20071;-67
2021/09/26 03:31:16;;;;;;;2.55;1.42;;;;;;;11.16;91.01;98382.41;5021352;28;20029;-67
2021/09/26 03:34:02;;;;;;;3.20;1.27;;;;;;;11.14;90.42;98380.78;5018278;28;20133;-67
2021/09/26 03:36:48;;;;;;;1.88;1.35;;;;;;;11.12;91.55;98385.19;5020800;28;20033;-67
2021/09/26 03:39:34;;;;;;;1.77;1.52;;;;;;;11.19;91.04;98389.19;5021210;28;20053;-67
2021/09/26 03:42:20;;;;;;;2.08;1.23;;;;;;;11.22;91.09;98394.22;5020891;28;20038;-66
2021/09/26 03:45:07;;;;;;;2.97;1.40;;;;;;;11.18;90.92;98385.75;5028839;28;20041;-67
2021/09/26 03:47:53;;;;;;;1.70;1.17;;;;;;;11.16;91.04;98384.13;5021942;28;20057;-66
2021/09/26 03:50:39;;;;;;;2.08;1.30;;;;;;;11.19;90.78;98381.41;5021179;28;20223;-67
2021/09/26 03:53:25;;;;;;;2.28;1.50;;;;;;;11.19;90.47;98390.03;5021050;28;20029;-66
2021/09/26 03:56:11;;;;;;;1.90;1.15;;;;;;;11.19;90.45;98392.63;5037017;28;20083;-66
2021/09/26 03:58:57;;;;;;;1.40;1.30;;;;;;;11.12;90.47;98391.22;5021626;28;20214;-66
2021/09/26 04:01:43;;;;;;;2.70;1.30;;;;;;;11.11;91.27;98401.66;5020410;28;20048;-66
2021/09/26 04:04:29;;;;;;;4.32;1.30;;;;;;;11.05;90.69;98387.22;5020950;28;20056;-67
2021/09/26 04:07:14;;;;;;;1.70;1.30;;;;;;;11.07;90.64;98397.50;5020761;28;20045;-66
2021/09/26 04:10:01;;;;;;;4.30;1.50;;;;;;;11.01;90.76;98391.66;5019970;28;20018;-67
2021/09/26 04:12:47;;;;;;;3.13;1.40;;;;;;;11.08;90.34;98402.63;5019228;28;20029;-68
2021/09/26 04:15:33;;;;;;;1.40;1.20;;;;;;;11.10;89.55;98408.59;5003834;28;20033;-67
2021/09/26 04:18:18;;;;;;;2.33;1.38;;;;;;;11.08;89.95;98402.63;5005057;28;20430;-68
2021/09/26 04:21:04;;;;;;;1.70;1.60;;;;;;;11.13;89.73;98399.81;5005200;28;20341;-68
2021/09/26 04:23:51;;;;;;;1.27;1.20;;;;;;;11.18;89.21;98408.22;5019483;28;20349;-68
2021/09/26 04:26:37;;;;;;;3.60;1.50;;;;;;;11.15;88.69;98408.38;5021488;28;20033;-68
2021/09/26 04:29:23;;;;;;;1.75;1.23;;;;;;;11.09;89.62;98416.41;5017844;28;20338;-68
2021/09/26 04:32:09;;;;;;;2.95;2.03;;;;;;;11.04;89.49;98411.44;5020695;28;20535;-67
2021/09/26 04:34:55;;;;;;;2.85;1.42;;;;;;;11.00;89.45;98417.66;5022227;28;20053;-67
2021/09/26 04:37:41;;;;;;;1.73;1.40;;;;;;;11.08;89.67;98420.75;5032322;28;20049;-67
2021/09/26 04:40:26;;;;;;;2.00;1.70;;;;;;;11.05;89.69;98420.88;5019955;28;20103;-67
2021/09/26 04:43:12;;;;;;;1.52;1.42;;;;;;;11.05;89.67;98410.53;5021229;28;20041;-67
2021/09/26 04:45:58;;;;;;;3.28;1.60;;;;;;;11.10;89.58;98420.69;5021841;28;20029;-66
2021/09/26 04:48:44;;;;;;;2.72;2.05;;;;;;;11.00;90.46;98426.28;5025601;28;20030;-66
2021/09/26 04:51:30;;;;;;;1.52;1.42;;;;;;;11.02;90.39;98429.63;5027918;28;20033;-67
2021/09/26 04:54:16;;;;;;;1.88;1.77;;;;;;;11.10;90.64;98425.88;5030839;28;20033;-67
2021/09/26 04:57:01;;;;;;;1.67;1.58;;;;;;;11.07;90.36;98441.53;5034342;28;20098;-67
2021/09/26 04:59:47;;;;;;;3.50;2.22;;;;;;;11.15;90.11;98434.28;5024076;28;20025;-67
2021/09/26 05:02:33;;;;;;;2.38;1.95;;;;;;;11.12;89.37;98427.47;5022555;28;20029;-67
2021/09/26 05:05:19;;;;;;;2.17;1.50;;;;;;;11.17;89.83;98443.69;5032247;28;20037;-67
2021/09/26 05:08:05;;;;;;;2.17;1.90;;;;;;;11.01;88.89;98434.88;5030260;28;20014;-67
2021/09/26 05:10:51;;;;;;;2.80;2.00;;;;;;;11.02;89.26;98441.75;5023807;28;20080;-67
2021/09/26 05:13:37;;;;;;;2.95;1.80;;;;;;;11.02;88.78;98446.94;5023832;28;20022;-66
2021/09/26 05:16:22;;;;;;;2.03;1.80;;;;;;;11.07;89.08;98450.16;5023400;28;20037;-67
2021/09/26 05:19:09;;;;;;;2.47;2.10;;;;;;;11.05;88.49;98455.41;5023047;28;20112;-67
2021/09/26 05:21:55;;;;;;;4.80;2.10;;;;;;;11.08;89.05;98456.19;5022809;28;20029;-66
2021/09/26 05:24:41;;;;;;;2.78;1.80;;;;;;;11.08;88.38;98458.78;5022997;28;20085;-68
2021/09/26 05:27:26;;;;;;;2.78;2.20;;;;;;;11.09;89.46;98460.44;5021073;28;20061;-68
2021/09/26 05:30:13;;;;;;;3.60;1.90;;;;;;;11.08;88.83;98457.03;5023017;28;20041;-66
2021/09/26 05:32:58;;;;;;;5.28;2.35;;;;;;;11.02;89.24;98459.88;5024507;28;20030;-67
2021/09/26 05:35:44;;;;;;;2.67;1.98;;;;;;;10.81;90.18;98462.47;5022938;28;20108;-67
2021/09/26 05:38:30;;;;;;;4.40;2.13;;;;;;;10.98;89.62;98473.88;5021735;28;20018;-67
2021/09/26 05:41:16;;;;;;;2.00;1.80;;;;;;;10.93;89.97;98476.69;5022995;28;20053;-68
2021/09/26 05:44:02;;;;;;;3.25;2.33;;;;;;;10.85;90.37;98481.31;5023183;28;20331;-66
2021/09/26 05:46:48;;;;;;;4.18;2.38;;;;;;;10.95;90.30;98489.56;5023242;28;20393;-66
2021/09/26 05:49:37;;;;;;;3.15;2.05;;;;;;;10.87;90.25;98488.13;5021695;28;20022;-66
2021/09/26 05:52:23;;;;;;;3.50;1.85;;;;;;;10.84;90.63;98488.25;5011868;28;20384;-67
2021/09/26 05:55:09;;;;;;;2.95;1.88;;;;;;;10.85;90.59;98500.28;5021746;28;20026;-67
2021/09/26 05:57:55;;;;;;;3.05;2.22;;;;;;;10.77;91.14;98493.75;5021875;28;20029;-68
2021/09/26 06:00:41;;;;;;;3.95;2.10;;;;;;;10.88;90.73;98494.97;5021411;28;20045;-67
2021/09/26 06:03:27;;;;;;;2.30;1.60;;;;;;;10.88;90.67;98500.16;5023659;28;20037;-67
2021/09/26 06:06:13;;;;;;;1.85;1.50;;;;;;;10.91;90.55;98504.38;5006047;28;20128;-66
2021/09/26 06:08:59;;;;;;;1.40;1.30;;;;;;;10.96;89.77;98511.94;5006833;28;20033;-67
2021/09/26 06:11:45;;;;;;;3.30;1.50;;;;;;;10.98;89.90;98510.16;5022775;28;20090;-68
2021/09/26 06:14:31;;;;;;;2.92;1.40;;;;;;;10.94;89.99;98514.59;5023382;28;20266;-66
2021/09/26 06:17:16;;;;;;;1.35;1.25;;;;;;;11.03;89.30;98518.53;5012653;28;20033;-67
2021/09/26 06:20:03;;;;;;;3.35;1.27;;;;;;;11.01;90.63;98522.97;5022386;28;20025;-67
2021/09/26 06:22:50;;;;;;;1.13;1.02;;;;;;;10.98;90.21;98521.34;5020606;28;20076;-67
2021/09/26 06:25:36;;;;;;;2.38;1.17;;;;;;;10.94;89.21;98522.38;5021779;28;20088;-67
2021/09/26 06:28:21;;;;;;;1.20;1.10;;;;;;;11.00;89.79;98529.03;5021270;28;20033;-67
2021/09/26 06:31:08;;;;;;;1.63;1.00;;;;;;;11.08;89.11;98529.56;5025678;28;20116;-67
2021/09/26 06:33:54;;;;;;;1.58;1.20;;;;;;;11.04;89.75;98541.84;5033736;28;20025;-67
2021/09/26 06:36:39;;;;;;;0.80;0.80;;;;;;;10.98;88.56;98541.22;5021870;28;20085;-68
2021/09/26 06:39:25;;;;;;;0.90;0.70;;;;;;;11.10;88.37;98545.91;5022391;28;20342;-67
2021/09/26 06:42:11;;;;;;;1.73;1.00;;;;;;;11.15;88.94;98551.72;5021025;28;20030;-68
2021/09/26 06:44:57;;;;;;;1.95;1.10;;;;;;;11.22;89.08;98550.56;5021483;28;20018;-68
2021/09/26 06:47:43;;;;;;;1.00;0.95;;;;;;;11.11;87.30;98559.69;5023323;28;20317;-68
2021/09/26 06:50:29;;;;;;;1.13;0.85;;;;;;;11.20;87.75;98561.88;5019477;28;20029;-67
2021/09/26 06:53:16;;;;;;;1.70;0.93;;;;;;;11.28;87.81;98562.41;5017804;28;20045;-67
2021/09/26 06:56:02;;;;;;;2.15;1.10;;;;;;;11.30;88.13;98554.56;5015981;28;20307;-67
2021/09/26 06:58:48;;;;;;;2.60;1.10;;;;;;;11.29;88.22;98568.47;5017896;28;20044;-69
2021/09/26 07:01:34;;;;;;;2.53;1.08;;;;;;;11.24;87.62;98566.03;5017585;28;20061;-68
2021/09/26 07:04:20;;;;;;;2.67;0.82;;;;;;;11.30;87.61;98564.94;5016490;28;20096;-68
2021/09/26 07:07:05;;;;;;;2.78;1.20;;;;;;;11.39;86.09;98567.16;5016948;28;20026;-68
2021/09/26 07:09:52;;;;;;;2.03;0.95;;;;;;;11.38;88.16;98570.63;5016937;28;20323;-67
2021/09/26 07:12:38;;;;;;;2.80;1.25;;;;;;;11.30;87.65;98567.53;5016778;28;20112;-70
2021/09/26 07:15:24;;;;;;;1.27;1.17;;;;;;;11.30;86.63;98572.72;5014944;28;20038;-66
2021/09/26 07:18:10;;;;;;;2.47;1.40;;;;;;;11.37;85.71;98575.00;5016844;28;20034;-67
2021/09/26 07:20:56;;;;;;;2.17;1.70;;;;;;;11.38;86.43;98570.63;5019419;28;20080;-66
2021/09/26 07:23:43;;;;;;;4.90;1.77;;;;;;;11.41;86.05;98583.47;5016066;28;20049;-65
2021/09/26 07:26:29;;;;;;;1.67;1.30;;;;;;;11.40;85.39;98582.63;5017752;28;20239;-66
2021/09/26 07:29:15;;;;;;;2.30;1.50;;;;;;;11.52;84.73;98591.63;5018349;28;20022;-66
2021/09/26 07:32:01;;;;;;;1.50;1.40;;;;;;;11.54;86.25;98591.56;5016321;28;20030;-66
2021/09/26 07:34:47;;;;;;;2.85;1.90;;;;;;;11.56;86.17;98595.78;5019659;28;20018;-66
2021/09/26 07:37:33;;;;;;;2.85;1.45;;;;;;;11.61;85.89;98603.34;5011175;28;20102;-66
2021/09/26 07:40:19;;;;;;;4.85;2.33;;;;;;;11.67;86.02;98608.28;5016812;28;20054;-67
2021/09/26 07:43:06;;;;;;;2.22;1.92;;;;;;;11.59;85.58;98605.19;5019967;28;20117;-66
2021/09/26 07:45:53;;;;;;;2.90;2.00;;;;;;;11.60;83.95;98601.69;5033283;28;20038;-65
2021/09/26 07:48:39;;;;;;;5.07;1.98;;;;;;;11.70;85.62;98617.66;5019714;28;20092;-65
2021/09/26 07:51:24;;;;;;;1.50;1.40;;;;;;;11.72;83.26;98621.88;5019309;28;20037;-66
2021/09/26 07:54:11;;;;;;;1.40;1.30;;;;;;;11.73;82.35;98613.19;5010051;28;20033;-65
2021/09/26 07:56:57;;;;;;;3.55;2.70;;;;;;;11.78;82.40;98631.16;5020095;28;20030;-64
2021/09/26 07:59:43;;;;;;;2.80;1.83;;;;;;;11.88;81.87;98616.84;5015650;28;20018;-65
2021/09/26 08:02:30;;;;;;;2.20;2.00;;;;;;;11.98;81.70;98630.31;5020916;28;20044;-66
2021/09/26 08:05:16;;;;;;;2.97;2.47;;;;;;;12.00;81.85;98631.09;5022008;28;20017;-66
2021/09/26 08:08:02;;;;;;;2.55;2.35;;;;;;;12.04;82.85;98639.56;5020254;28;20055;-66
2021/09/26 08:10:48;;;;;;;2.95;2.55;;;;;;;11.90;82.90;98638.41;5019357;28;20010;-65
2021/09/26 08:13:34;;;;;;;5.65;3.90;;;;;;;11.87;81.48;98653.25;5020055;28;20089;-66
2021/09/26 08:16:20;;;;;;;2.97;2.78;;;;;;;11.70;81.71;98636.69;5020356;28;20045;-66
2021/09/26 08:19:06;;;;;;;2.88;2.00;;;;;;;11.68;83.70;98659.22;5016754;28;20030;-66
2021/09/26 08:21:52;;;;;;;2.13;1.73;;;;;;;11.68;83.55;98648.84;5020397;28;20056;-68
2021/09/26 08:24:38;;;;;;;2.63;2.33;;;;;;;11.66;83.52;98655.03;5023948;28;20026;-67
2021/09/26 08:27:24;;;;;;;3.25;2.05;;;;;;;11.73;83.49;98662.47;5032055;28;20319;-68
2021/09/26 08:30:11;;;;;;;2.15;1.95;;;;;;;11.70;85.11;98670.41;5020082;28;20038;-67
2021/09/26 08:32:57;;;;;;;1.90;1.80;;;;;;;11.66;85.83;98668.00;5024946;28;20215;-67
2021/09/26 08:35:43;;;;;;;3.63;1.58;;;;;;;11.47;85.18;98678.28;5023840;28;20029;-65
2021/09/26 08:38:29;;;;;;;3.13;1.67;;;;;;;11.53;84.87;98675.47;5018824;28;20040;-67
2021/09/26 08:41:18;;;;;;;3.47;1.83;;;;;;;11.54;84.57;98684.91;5019689;28;20250;-67
2021/09/26 08:44:07;;;;;;;2.75;1.60;;;;;;;11.51;85.68;98685.03;5019894;28;20021;-67
2021/09/26 08:46:55;;;;;;;1.42;1.33;;;;;;;11.53;84.68;98686.66;5019679;28;20025;-67
2021/09/26 08:49:41;;;;;;;1.90;1.60;;;;;;;11.58;84.96;98697.66;5020117;28;20025;-67
2021/09/26 08:52:27;;;;;;;1.90;1.80;;;;;;;11.53;86.08;98702.22;5023185;28;20211;-67
2021/09/26 08:55:14;;;;;;;1.63;1.50;;;;;;;11.59;86.05;98708.91;5019723;28;20026;-68
2021/09/26 08:58:00;;;;;;;2.13;1.40;;;;;;;11.52;86.19;98708.31;5018467;28;20064;-67
2021/09/26 09:00:47;;;;;;;1.90;1.67;;;;;;;11.65;85.77;98713.00;5019983;28;20022;-67
2021/09/26 09:03:33;;;;;;;3.40;1.80;;;;;;;11.61;86.50;98719.22;5020977;28;20085;-68
2021/09/26 09:06:37;;;;;;;2.42;1.60;;;;;;;11.64;86.40;98717.31;5011002;28;20030;-67
2021/09/26 09:09:24;;;;;;;3.67;1.77;;;;;;;11.59;86.59;98729.66;5024403;28;20299;-69
2021/09/26 09:12:10;;;;;;;7.10;1.95;;;;;;;11.47;87.26;98720.63;5021518;28;20037;-67
2021/09/26 09:15:05;;;;;;;4.65;1.60;;;;;;;11.22;86.73;98680.13;5007163;28;20033;-66
2021/09/26 09:18:00;;;;;;;1.77;1.65;;;;;;;11.27;86.92;98677.34;5023106;28;20330;-67
2021/09/26 09:20:46;;;;;;;2.03;1.50;;;;;;;11.59;85.74;98724.47;5008036;28;20038;-68
2021/09/26 09:23:32;;;;;;;3.70;1.60;;;;;;;11.60;85.80;98725.28;5023670;28;20025;-68
2021/09/26 09:26:33;;;;;;;4.25;1.45;;;;;;;11.36;86.25;98689.13;5021464;28;20104;-67
2021/09/26 09:29:23;;;;;;;1.40;1.30;;;;;;;11.69;85.14;98730.94;5022846;28;20413;-68
2021/09/26 09:32:18;;;;;;;1.90;1.33;;;;;;;11.81;86.11;98739.13;5019121;28;20029;-66
2021/09/26 09:35:19;;;;;;;3.55;1.73;;;;;;;11.75;87.24;98716.88;5020405;28;20037;-65
2021/09/26 09:38:05;;;;;;;6.07;1.95;;;;;;;11.95;86.91;98743.78;5031842;28;20484;-68
2021/09/26 09:40:51;;;;;;;1.88;1.20;;;;;;;11.95;84.01;98749.81;5025369;28;20037;-68
2021/09/26 09:43:48;;;;;;;1.30;1.20;;;;;;;12.06;84.50;98757.13;5022435;28;20033;-69
2021/09/26 09:46:37;;;;;;;1.20;1.02;;;;;;;12.03;83.90;98741.72;5021011;28;20046;-68
2021/09/26 09:49:25;;;;;;;1.80;1.20;;;;;;;12.04;82.89;98752.03;5023019;28;20030;-68
2021/09/26 09:52:11;;;;;;;2.92;1.10;;;;;;;12.04;83.43;98754.63;5016933;28;20316;-68
2021/09/26 09:54:56;;;;;;;3.30;1.33;;;;;;;12.10;83.25;98761.28;5045044;28;20378;-66
2021/09/26 09:57:42;;;;;;;2.42;1.40;;;;;;;12.02;84.09;98768.56;5022610;28;20045;-68
2021/09/26 10:00:28;;;;;;;2.88;1.30;;;;;;;12.02;83.02;98765.97;5022477;28;20224;-68
2021/09/26 10:03:39;;;;;;;2.28;1.33;;;;;;;12.03;83.21;98771.09;5022939;28;20109;-68
2021/09/26 10:06:25;;;;;;;3.67;1.60;;;;;;;12.07;81.72;98770.06;5003429;28;20088;-67
2021/09/26 10:09:21;;;;;;;2.65;1.42;;;;;;;12.15;80.92;98774.06;5022767;28;20030;-68
2021/09/26 10:12:09;;;;;;;3.83;1.40;;;;;;;12.02;84.38;98786.72;5022897;28;20116;-67
2021/09/26 10:15:04;;;;;;;4.05;1.35;;;;;;;11.77;81.66;98729.78;5009055;28;20249;-67
2021/09/26 10:17:49;;;;;;;2.15;1.52;;;;;;;12.10;81.85;98787.25;5022672;28;20022;-67
2021/09/26 10:20:35;;;;;;;1.58;1.40;;;;;;;12.06;82.90;98789.13;5010024;28;20026;-66
2021/09/26 10:23:22;;;;;;;1.90;1.67;;;;;;;12.04;81.98;98790.94;5022343;28;20075;-65
2021/09/26 10:26:09;;;;;;;3.05;1.50;;;;;;;12.03;81.11;98801.41;5022326;28;20565;-66
2021/09/26 10:28:58;;;;;;;1.63;1.33;;;;;;;11.77;80.74;98753.97;5022794;28;20022;-65
2021/09/26 10:31:46;;;;;;;1.10;0.98;;;;;;;12.06;81.43;98788.28;5021734;28;20022;-67
2021/09/26 10:34:32;;;;;;;1.25;1.13;;;;;;;12.05;80.71;98799.56;5022112;28;20079;-67
2021/09/26 10:37:21;;;;;;;4.70;1.40;;;;;;;11.84;80.77;98759.75;5021720;28;20101;-65
2021/09/26 10:40:08;;;;;;;1.88;1.10;;;;;;;11.89;81.48;98783.75;5030204;28;20104;-63
2021/09/26 10:42:54;;;;;;;1.50;1.10;;;;;;;12.20;81.73;98818.81;5037716;28;20022;-64
2021/09/26 10:45:40;;;;;;;1.38;1.27;;;;;;;12.21;82.14;98826.56;5027573;28;20022;-65
2021/09/26 10:49:23;;;;;;;1.10;1.00;;;;;;;12.15;81.14;98832.00;5022374;28;20033;-65
2021/09/26 10:52:29;;;;;;;1.25;1.15;;;;;;;12.21;81.78;98829.19;5000237;28;20074;-65
2021/09/26 10:55:15;;;;;;;1.25;1.15;;;;;;;12.24;82.06;98836.84;5015009;28;20065;-65
2021/09/26 10:58:05;;;;;;;1.38;1.27;;;;;;;12.30;81.19;98835.72;5000792;28;20058;-65
2021/09/26 11:00:57;;;;;;;2.28;0.98;;;;;;;11.96;81.42;98805.16;5004627;28;20216;-63
2021/09/26 11:03:43;;;;;;;1.08;1.08;;;;;;;12.16;82.51;98846.69;5002031;28;20033;-67
2021/09/26 11:06:30;;;;;;;1.25;1.10;;;;;;;12.19;81.18;98849.16;5001598;28;20189;-64
2021/09/26 11:09:16;;;;;;;1.45;1.20;;;;;;;12.14;81.33;98852.84;5000941;28;20223;-65
2021/09/26 11:12:02;;;;;;;1.60;1.38;;;;;;;12.09;80.70;98853.88;5000018;28;20315;-66
2021/09/26 11:15:20;;;;;;;1.48;1.35;;;;;;;12.17;82.62;98871.75;5000403;28;20354;-64
2021/09/26 11:18:06;;;;;;;3.97;1.70;;;;;;;12.17;80.96;98861.34;5001536;28;20023;-64
2021/09/26 11:20:52;;;;;;;3.60;1.50;;;;;;;12.20;81.07;98868.16;5001158;28;20340;-66
2021/09/26 11:23:38;;;;;;;2.28;1.60;;;;;;;12.26;82.37;98871.34;5018355;28;20493;-65
2021/09/26 11:26:24;;;;;;;1.42;1.17;;;;;;;12.17;81.53;98876.06;5020781;28;20037;-63
2021/09/26 11:29:10;;;;;;;1.02;1.02;;;;;;;12.12;80.43;98878.84;5020767;28;20379;-66
2021/09/26 11:31:57;;;;;;;1.27;1.13;;;;;;;12.16;81.75;98887.38;5021798;28;20022;-65
2021/09/26 11:34:45;;;;;;;2.30;1.17;;;;;;;11.75;81.82;98844.81;5032293;28;20021;-68
2021/09/26 11:37:38;;;;;;;1.77;1.00;;;;;;;12.01;83.33;98901.81;5023377;28;20034;-65
2021/09/26 11:40:43;;;;;;;;;;;;;;;11.95;83.06;98905.50;5022684;28;20057;-66
2021/09/26 11:43:33;;;;;;;1.40;1.30;;;;;;;11.69;83.99;98863.22;5019756;28;20098;-66
2021/09/26 11:46:22;;;;;;;1.98;1.20;;;;;;;11.89;84.08;98892.75;5020167;28;20041;-64
2021/09/26 11:49:09;;;;;;;1.23;1.13;;;;;;;11.92;83.39;98903.81;5021811;28;20125;-65
2021/09/26 11:51:55;;;;;;;3.33;1.48;;;;;;;11.91;83.92;98912.53;5019565;28;20049;-65
2021/09/26 11:54:42;;;;;;;3.10;1.50;;;;;;;11.96;83.24;98927.13;5016039;28;20356;-64
2021/09/26 11:57:28;;;;;;;3.28;1.25;;;;;;;11.98;82.37;98925.28;5021620;28;20029;-64
2021/09/26 12:00:26;;;;;;;1.88;1.10;;;;;;;11.77;81.74;98883.66;5021305;28;20071;-65
2021/09/26 12:03:24;;;;;;;1.63;1.35;;;;;;;12.00;82.63;98919.13;5018381;28;20203;-64
2021/09/26 12:06:18;;;;;;;2.25;1.30;;;;;;;11.77;81.80;98888.84;5021855;28;20026;-63
2021/09/26 12:09:05;;;;;;;2.83;1.20;;;;;;;12.04;81.87;98935.41;5020113;28;20029;-63
2021/09/26 12:11:52;;;;;;;1.60;1.27;;;;;;;12.12;82.75;98938.56;5021825;28;20044;-64
2021/09/26 12:14:41;;;;;;;0.90;0.90;;;;;;;12.07;82.64;98938.75;5020745;28;20064;-64
2021/09/26 12:17:29;;;;;;;1.40;1.23;;;;;;;12.05;82.33;98947.50;5028632;28;20123;-63
2021/09/26 12:20:15;;;;;;;1.17;1.00;;;;;;;12.02;82.59;98951.06;5027298;28;20054;-65
2021/09/26 12:23:02;;;;;;;0.93;0.88;;;;;;;12.02;81.04;98956.25;5020228;28;20161;-64
2021/09/26 12:26:00;;;;;;;1.92;1.20;;;;;;;12.03;81.79;98950.16;5020431;28;20421;-65
2021/09/26 12:28:46;;;;;;;0.93;0.93;;;;;;;11.98;80.84;98961.63;5020737;28;20034;-64
2021/09/26 12:31:33;;;;;;;1.10;1.02;;;;;;;11.82;80.95;98938.81;5020633;28;20030;-63
2021/09/26 12:34:35;;;;;;;1.40;0.90;;;;;;;12.09;80.84;98962.03;5019174;28;20108;-63
2021/09/26 12:37:25;;;;;;;1.30;1.20;;;;;;;12.08;79.76;98962.94;5018589;28;20034;-64
2021/09/26 12:40:13;;;;;;;1.33;1.23;;;;;;;12.12;80.95;98959.31;5019780;28;20116;-64
2021/09/26 12:43:01;;;;;;;2.72;1.25;;;;;;;11.84;80.98;98937.03;5019450;28;20033;-64
2021/09/26 12:45:47;;;;;;;2.30;1.15;;;;;;;12.06;79.44;98962.16;5017840;28;20030;-63
2021/09/26 12:48:34;;;;;;;1.60;1.50;;;;;;;12.25;80.42;98978.69;5019159;28;20140;-63
2021/09/26 12:51:31;;;;;;;2.05;1.30;;;;;;;12.17;79.83;98980.75;5003989;28;20025;-65
2021/09/26 12:54:33;;;;;;;2.67;1.88;;;;;;;12.17;79.86;98996.34;5012238;28;20030;-62
2021/09/26 12:57:23;;;;;;;1.50;1.40;;;;;;;12.24;80.84;99005.56;5032215;28;20036;-64
2021/09/26 13:00:32;;;;;;;2.10;1.35;;;;;;;11.96;80.31;98942.69;5032210;28;20335;-64
2021/09/26 13:03:23;;;;;;;1.77;1.30;;;;;;;12.01;80.83;98958.91;5021303;28;20033;-64
2021/09/26 13:06:09;;;;;;;1.90;1.17;;;;;;;12.22;81.62;99001.34;5019999;28;20037;-66
2021/09/26 13:08:56;;;;;;;1.88;1.38;;;;;;;12.18;81.69;99003.19;5023851;28;20021;-65
2021/09/26 13:11:42;;;;;;;2.45;1.60;;;;;;;12.09;82.62;98999.22;5022836;28;20096;-65
2021/09/26 13:14:32;;;;;;;4.50;1.60;;;;;;;12.19;82.27;99007.50;5029558;28;20073;-64